Overview Statistics Trail Chart Weather Telemetry Raw packets
 

This is the latest recevied weather packets stored in our database for station/object K5FEP. If no packets are shown the sender has not sent any weather packets the latest 10 day(s).

<< 83 84 85 86 87 88 89 >>
Time Temp. Humidity Pressure Rain* Wind** Luminosity Snow
1788029704 31.11° C 57% 1021.2 hPa 0 mm - 872 W/m² -
1788029399 30.56° C 57% 1021.3 hPa 0 mm - 849 W/m² -
1788029097 30.56° C 59% 1021.6 hPa 0 mm - 731 W/m² -
1788028792 30° C 60% 1021.7 hPa 0 mm - 811 W/m² -
1788028487 30° C 59% 1021.8 hPa 0 mm - 557 W/m² -
1788028183 30° C 59% 1021.7 hPa 0 mm - 505 W/m² -
1788027882 30° C 60% 1022.1 hPa 0 mm - 740 W/m² -
1788027578 29.44° C 62% 1022.1 hPa 0 mm - 825 W/m² -
1788027278 29.44° C 61% 1022.1 hPa 0 mm - 408 W/m² -
1788026977 28.89° C 63% 1022.1 hPa 0 mm - 333 W/m² -
1788026672 28.89° C 63% 1022.3 hPa 0 mm - 234 W/m² -
1788026368 28.89° C 63% 1022.3 hPa 0 mm - 248 W/m² -
1788026064 28.89° C 62% 1022.3 hPa 0 mm - 504 W/m² -
1788025762 30° C 61% 1022.5 hPa 0 mm - 273 W/m² -
1788025468 28.89° C 62% 1022.4 hPa 0 mm - 349 W/m² -
1788025158 28.89° C 63% 1022.5 hPa 0 mm - 365 W/m² -
1788024857 29.44° C 62% 1022.5 hPa 0 mm - 227 W/m² -
1788024554 29.44° C 63% 1022.4 hPa 0 mm - 635 W/m² -
1788024252 28.89° C 62% 1022.4 hPa 0 mm - 580 W/m² -
1788023948 28.89° C 64% 1022.5 hPa 0 mm - 821 W/m² -
1788023651 28.89° C 62% 1022.3 hPa 0 mm - 450 W/m² -
1788023340 28.33° C 66% 1022.3 hPa 0 mm - 676 W/m² -
1788023039 28.33° C 66% 1022.6 hPa 0 mm - 408 W/m² -
1788022737 28.89° C 64% 1022.3 hPa 0 mm - 253 W/m² -
1788022435 28.89° C 64% 1022.3 hPa 0 mm - 440 W/m² -

* Rain latest hour (hover to see other rain measurements)
** Current wind speed in m/s (hover to see current wind gust speed)